WetterOnline ( https://www.wetteronline.de )

Wetter aktuell Feldberg

Aktuelles Wetter: Feldberg/Schwarzwald (1493m)

6-stündlich | Neueste Meldungen
Ortszeit Temperatur Wetter
Mi, 27.10. 20:00 5.6° C wolkig
Mi, 27.10. 14:00 7.4° C leicht bewölkt
Mi, 27.10. 8:00 3.3° C Nebel
Mi, 27.10. 2:00 4.4° C wolkig
Di, 26.10. 20:00 4.2° C wolkig
Di, 26.10. 14:00 4.1° C bedeckt
Di, 26.10. 8:00 3.0° C Nebel
Di, 26.10. 2:00 3.9° C Nebel
Ortszeit Temperatur Wetter
Do, 28.10. 0:30 8.3° C wolkenlos
Do, 28.10. 0:20 8.3° C wolkenlos
Do, 28.10. 0:10 7.5° C fast wolkenlos
Do, 28.10. 0:00 8.8° C leicht bewölkt
Mi, 27.10. 23:50 8.8° C leicht bewölkt
Mi, 27.10. 23:40 8.9° C wolkig
Mi, 27.10. 23:30 8.7° C leicht bewölkt
Mi, 27.10. 23:00 8.1° C wolkig
Mi, 27.10. 22:30 8.2° C wolkenlos
Mi, 27.10. 22:00 6.6° C wolkenlos
Mi, 27.10. 21:30 6.4° C leicht bewölkt
Ortszeit Relative Feuchte Sichtweite
Mi, 27.10. 20:00 70% 65 km
Mi, 27.10. 14:00 56% 50 km
Mi, 27.10. 8:00 93% <100 m
Mi, 27.10. 2:00 73% >70 km
Di, 26.10. 20:00 93% 35 km
Di, 26.10. 14:00 94% 45 km
Di, 26.10. 8:00 99% <100 m
Di, 26.10. 2:00 98% <100 m
Ortszeit Relative Feuchte Sichtweite
Do, 28.10. 0:30 25% >70 km
Do, 28.10. 0:20 25% -
Do, 28.10. 0:10 34% -
Do, 28.10. 0:00 19% >70 km
Mi, 27.10. 23:50 19% -
Mi, 27.10. 23:40 16% -
Mi, 27.10. 23:30 16% >70 km
Mi, 27.10. 23:00 21% >70 km
Mi, 27.10. 22:30 15% >70 km
Mi, 27.10. 22:00 39% >70 km
Mi, 27.10. 21:30 43% >70 km
Ortszeit Niederschlagsmenge Niederschlagsart
Mi, 27.10. 20:00 0.0 l/m2 in 12 Std. -
Mi, 27.10. 14:00 0.0 l/m2 in 6 Std. -
Mi, 27.10. 8:00 0.0 l/m2 in 12 Std. -
Mi, 27.10. 2:00 0.0 l/m2 in 6 Std. -
Di, 26.10. 20:00 0.1 l/m2 in 12 Std. Regen
Di, 26.10. 14:00 0.1 l/m2 in 6 Std. Schnee, Regen
Di, 26.10. 8:00 0.1 l/m2 in 12 Std. Schnee, Regen
Di, 26.10. 2:00 0.0 l/m2 in 6 Std. -
Ortszeit Niederschlagsmenge Niederschlagsart
Do, 28.10. 0:30 0.0 l/m2 in 1 Std. -
Do, 28.10. 0:20 keine Meldung -
Do, 28.10. 0:10 keine Meldung -
Do, 28.10. 0:00 0.0 l/m2 in 1 Std. -
Mi, 27.10. 23:50 keine Meldung -
Mi, 27.10. 23:40 keine Meldung -
Mi, 27.10. 23:30 0.0 l/m2 in 1 Std. -
Mi, 27.10. 23:00 0.0 l/m2 in 1 Std. -
Mi, 27.10. 22:30 0.0 l/m2 in 1 Std. -
Mi, 27.10. 22:00 0.0 l/m2 in 1 Std. -
Mi, 27.10. 21:30 0.0 l/m2 in 1 Std. -
Ortszeit Stärke Spitze Richtung
km/h Bft. km/h Grad Sektor
Mi, 27.10. 20:00 41 6 44 110° O
Mi, 27.10. 14:00 18 3 25 100° O
Mi, 27.10. 8:00 14 3 18 120° SO
Mi, 27.10. 2:00 4 1 18 320° NW
Di, 26.10. 20:00 14 3 22 250° W
Di, 26.10. 14:00 14 3 32 260° W
Di, 26.10. 8:00 22 4 50 270° W
Di, 26.10. 2:00 32 5 50 250° W
Ortszeit Stärke Spitze Richtung
km/h Bft. km/h Grad Sektor
Do, 28.10. 0:30 20 4 26 150° SO
Do, 28.10. 0:20 20 4 - 150° SO
Do, 28.10. 0:10 19 3 - 150° SO
Do, 28.10. 0:00 26 4 31 120° SO
Mi, 27.10. 23:50 26 4 - 120° SO
Mi, 27.10. 23:40 26 4 - 120° SO
Mi, 27.10. 23:30 28 4 31 120° SO
Mi, 27.10. 23:00 32 5 43 120° SO
Mi, 27.10. 22:30 36 5 43 110° O
Mi, 27.10. 22:00 40 6 43 110° O
Mi, 27.10. 21:30 37 5 43 110° O
Ortszeit Untergrenze Bedeckung Gattung
total tief tief mittel hoch
Mi, 27.10. 20:00 9000 m 8/8 0/8 - - -
Mi, 27.10. 14:00 9000 m 8/8 0/8 - - -
Mi, 27.10. 8:00 <30 m 8/8 0/8 - - -
Mi, 27.10. 2:00 9000 m 8/8 0/8 - - -
Di, 26.10. 20:00 120 m 8/8 2/8 - - -
Di, 26.10. 14:00 60 m 8/8 8/8 - - -
Di, 26.10. 8:00 <30 m 8/8 0/8 - - -
Di, 26.10. 2:00 <30 m 8/8 0/8 - - -
Ortszeit Bedeckungsgrad in Achtel und Wolkenuntergrenze
Do, 28.10. 0:30 keine Wolken
Do, 28.10. 0:20 keine Wolken
Do, 28.10. 0:10 1(9000m)
Do, 28.10. 0:00 6(9000m)
Mi, 27.10. 23:50 6(9000m)
Mi, 27.10. 23:40 7(9000m)
Mi, 27.10. 23:30 3(9000m)
Mi, 27.10. 23:00 7(9000m)
Mi, 27.10. 22:30 3(9000m)
Mi, 27.10. 22:00 keine Wolken
Mi, 27.10. 21:30 3(9000m)
Ortszeit Stationsdruck (hPa) Tendenz (hPa in 3 Std.)
Mi, 27.10. 20:00 855 - 0,6
Mi, 27.10. 14:00 857 - 0,6
Mi, 27.10. 8:00 857 + 0,2
Mi, 27.10. 2:00 857 - 0,3
Di, 26.10. 20:00 857 + 0,9
Di, 26.10. 14:00 856 + 0,2
Di, 26.10. 8:00 855 + 0,9
Di, 26.10. 2:00 854 0,0
Ortszeit Stationsdruck (hPa) Tendenz (hPa in 3 Std.)
Do, 28.10. 0:30 855 - 0,4
Do, 28.10. 0:20 855 keine Meldung
Do, 28.10. 0:10 855 keine Meldung
Do, 28.10. 0:00 855 - 0,3
Mi, 27.10. 23:50 855 keine Meldung
Mi, 27.10. 23:40 855 keine Meldung
Mi, 27.10. 23:30 855 - 0,4
Mi, 27.10. 23:00 855 - 0,4
Mi, 27.10. 22:30 855 - 0,3
Mi, 27.10. 22:00 855 - 0,4
Mi, 27.10. 21:30 855 - 0,2
Ortszeit Schneehöhe (cm)
Mi, 27.10. 20:00 0
Mi, 27.10. 14:00 0
Mi, 27.10. 8:00 0
Mi, 27.10. 2:00 0
Di, 26.10. 20:00 0
Di, 26.10. 14:00 0
Di, 26.10. 8:00 0
Di, 26.10. 2:00 0
Ortszeit Schneehöhe (cm)
Do, 28.10. 0:30 0
Do, 28.10. 0:20 0
Do, 28.10. 0:10 0
Do, 28.10. 0:00 0
Mi, 27.10. 23:50 0
Mi, 27.10. 23:40 0
Mi, 27.10. 23:30 0
Mi, 27.10. 23:00 0
Mi, 27.10. 22:30 0
Mi, 27.10. 22:00 0
Mi, 27.10. 21:30 0
Link zu dieser Seite / Seite empfehlen

Das Wetter in ...